RPA4459 KIND-KLGA
Flight info
| Callsign | RPA4459 |
|---|---|
| Flight time | N/A |
| Altitude | 31000 |
| Route | MAREO5 BDOCK WWSHR TEESY Q186 WEVEL ETG MIP4 |
| Aircraft | E75L/M-SDE3GILORVW/S |
Departure
| Time | 2026-05-08 01:11 |
|---|---|
| Airport | Indianapolis International Airport (KIND) |
Arrival
| Time | N/A |
|---|---|
| Airport | LaGuardia Airport (KLGA) |
| Time | Latitude | Longitude | Altitude | Speed | Heading |
|---|---|---|---|---|---|
| 2026-05-08 00:47 | 39.71690 | -86.29702 | 779 ft | 0 kts | 303° |
| 2026-05-08 00:59 | 39.71684 | -86.29691 | 779 ft | 4 kts | 303° |
| 2026-05-08 00:59 | 39.71670 | -86.29661 | 779 ft | 4 kts | 303° |
| 2026-05-08 00:59 | 39.71662 | -86.29645 | 779 ft | 0 kts | 303° |
| 2026-05-08 01:03 | 39.71665 | -86.29647 | 779 ft | 1 kts | 344° |
| 2026-05-08 01:03 | 39.71672 | -86.29640 | 788 ft | 3 kts | 51° |
| 2026-05-08 01:03 | 39.71692 | -86.29603 | 779 ft | 8 kts | 55° |
| 2026-05-08 01:03 | 39.71733 | -86.29548 | 779 ft | 9 kts | 42° |
| 2026-05-08 01:04 | 39.71790 | -86.29487 | 779 ft | 12 kts | 39° |
| 2026-05-08 01:04 | 39.71839 | -86.29406 | 779 ft | 11 kts | 85° |
| 2026-05-08 01:04 | 39.71857 | -86.29316 | 779 ft | 10 kts | 43° |
| 2026-05-08 01:04 | 39.71917 | -86.29272 | 779 ft | 10 kts | 351° |
| 2026-05-08 01:05 | 39.71974 | -86.29329 | 779 ft | 11 kts | 314° |
| 2026-05-08 01:05 | 39.72034 | -86.29408 | 779 ft | 13 kts | 315° |
| 2026-05-08 01:05 | 39.72100 | -86.29495 | 779 ft | 14 kts | 315° |
| 2026-05-08 01:05 | 39.72172 | -86.29590 | 779 ft | 15 kts | 314° |
| 2026-05-08 01:06 | 39.72245 | -86.29685 | 779 ft | 12 kts | 322° |
| 2026-05-08 01:06 | 39.72309 | -86.29655 | 778 ft | 11 kts | 43° |
| 2026-05-08 01:06 | 39.72367 | -86.29580 | 779 ft | 13 kts | 44° |
| 2026-05-08 01:06 | 39.72433 | -86.29497 | 778 ft | 14 kts | 44° |
| 2026-05-08 01:07 | 39.72506 | -86.29404 | 778 ft | 15 kts | 43° |
| 2026-05-08 01:07 | 39.72584 | -86.29305 | 779 ft | 16 kts | 44° |
| 2026-05-08 01:07 | 39.72667 | -86.29200 | 778 ft | 17 kts | 44° |
| 2026-05-08 01:07 | 39.72674 | -86.29086 | 779 ft | 13 kts | 122° |
| 2026-05-08 01:08 | 39.72623 | -86.28979 | 779 ft | 13 kts | 112° |
| 2026-05-08 01:08 | 39.72662 | -86.28897 | 779 ft | 9 kts | 357° |
| 2026-05-08 01:08 | 39.72674 | -86.28931 | 779 ft | 0 kts | 250° |
| 2026-05-08 01:09 | 39.72670 | -86.28943 | 779 ft | 6 kts | 250° |
| 2026-05-08 01:09 | 39.72651 | -86.29041 | 779 ft | 9 kts | 287° |
| 2026-05-08 01:10 | 39.72699 | -86.29133 | 779 ft | 17 kts | 305° |
| 2026-05-08 01:10 | 39.72787 | -86.29257 | 778 ft | 20 kts | 314° |
| 2026-05-08 01:10 | 39.72788 | -86.29344 | 777 ft | 12 kts | 226° |
| 2026-05-08 01:10 | 39.72537 | -86.29666 | 776 ft | 90 kts | 224° |
| 2026-05-08 01:11 | 39.71915 | -86.30455 | 781 ft | 157 kts | 224° |
| 2026-05-08 01:11 | 39.71054 | -86.31514 | 1420 ft | 175 kts | 224° |
| 2026-05-08 01:11 | 39.70172 | -86.32607 | 2366 ft | 179 kts | 226° |
| 2026-05-08 01:11 | 39.69249 | -86.33778 | 2969 ft | 190 kts | 227° |
| 2026-05-08 01:12 | 39.68298 | -86.35006 | 3792 ft | 195 kts | 232° |
| 2026-05-08 01:12 | 39.67708 | -86.36647 | 4319 ft | 217 kts | 263° |
| 2026-05-08 01:12 | 39.67992 | -86.38676 | 4831 ft | 245 kts | 295° |
| 2026-05-08 01:12 | 39.69170 | -86.40275 | 5726 ft | 258 kts | 325° |
| 2026-05-08 01:13 | 39.70868 | -86.41088 | 6709 ft | 261 kts | 339° |